sensor_id;sensor_type;location;lat;lon;timestamp;temperature;humidity
7512;DHT22;9999;48.780;9.146;2023-07-24T00:00:40;19.50;99.90
7512;DHT22;9999;48.780;9.146;2023-07-24T00:03:07;19.40;99.90
7512;DHT22;9999;48.780;9.146;2023-07-24T00:05:34;19.20;99.90
7512;DHT22;9999;48.780;9.146;2023-07-24T00:08:02;19.10;99.90
7512;DHT22;9999;48.780;9.146;2023-07-24T00:10:29;19.00;99.90
7512;DHT22;9999;48.780;9.146;2023-07-24T00:12:57;18.90;99.90
7512;DHT22;9999;48.780;9.146;2023-07-24T00:15:23;19.00;99.90
7512;DHT22;9999;48.780;9.146;2023-07-24T00:17:50;19.00;99.90
7512;DHT22;9999;48.780;9.146;2023-07-24T00:20:17;18.80;99.90
7512;DHT22;9999;48.780;9.146;2023-07-24T00:22:44;18.80;99.90
7512;DHT22;9999;48.780;9.146;2023-07-24T00:25:12;18.70;99.90
7512;DHT22;9999;48.780;9.146;2023-07-24T00:27:39;18.70;99.90
7512;DHT22;9999;48.780;9.146;2023-07-24T00:30:07;18.70;99.90
7512;DHT22;9999;48.780;9.146;2023-07-24T00:32:34;18.70;99.90
7512;DHT22;9999;48.780;9.146;2023-07-24T00:35:01;18.70;99.90
7512;DHT22;9999;48.780;9.146;2023-07-24T00:37:28;18.70;99.90
7512;DHT22;9999;48.780;9.146;2023-07-24T00:39:55;18.80;99.90
7512;DHT22;9999;48.780;9.146;2023-07-24T00:42:24;18.80;99.90
7512;DHT22;9999;48.780;9.146;2023-07-24T00:44:51;18.70;99.90
7512;DHT22;9999;48.780;9.146;2023-07-24T00:47:18;18.70;99.90
7512;DHT22;9999;48.780;9.146;2023-07-24T00:49:45;18.70;99.90
7512;DHT22;9999;48.780;9.146;2023-07-24T00:52:13;18.70;99.90
7512;DHT22;9999;48.780;9.146;2023-07-24T00:54:40;18.80;99.90
7512;DHT22;9999;48.780;9.146;2023-07-24T00:57:07;18.80;99.90
7512;DHT22;9999;48.780;9.146;2023-07-24T00:59:36;18.80;99.90
7512;DHT22;9999;48.780;9.146;2023-07-24T01:02:03;18.80;99.90
7512;DHT22;9999;48.780;9.146;2023-07-24T01:04:30;18.80;99.90
7512;DHT22;9999;48.780;9.146;2023-07-24T01:06:57;18.80;99.90
7512;DHT22;9999;48.780;9.146;2023-07-24T01:09:24;18.70;99.90
7512;DHT22;9999;48.780;9.146;2023-07-24T01:11:56;18.70;99.90
7512;DHT22;9999;48.780;9.146;2023-07-24T01:14:29;18.70;99.90
7512;DHT22;9999;48.780;9.146;2023-07-24T01:17:00;18.70;99.90
7512;DHT22;9999;48.780;9.146;2023-07-24T01:19:35;18.50;99.90
7512;DHT22;9999;48.780;9.146;2023-07-24T01:22:10;18.50;99.90
7512;DHT22;9999;48.780;9.146;2023-07-24T01:24:52;18.30;99.90
7512;DHT22;9999;48.780;9.146;2023-07-24T01:27:27;18.20;99.90
7512;DHT22;9999;48.780;9.146;2023-07-24T01:29:54;18.30;99.90
7512;DHT22;9999;48.780;9.146;2023-07-24T01:32:21;18.10;99.90
7512;DHT22;9999;48.780;9.146;2023-07-24T01:34:48;18.10;99.90
7512;DHT22;9999;48.780;9.146;2023-07-24T01:37:16;18.00;99.90
7512;DHT22;9999;48.780;9.146;2023-07-24T01:39:44;18.00;99.90
7512;DHT22;9999;48.780;9.146;2023-07-24T01:42:12;18.10;99.90
7512;DHT22;9999;48.780;9.146;2023-07-24T01:44:40;18.00;99.90
7512;DHT22;9999;48.780;9.146;2023-07-24T01:47:07;17.80;99.90
7512;DHT22;9999;48.780;9.146;2023-07-24T01:49:34;17.80;99.90
7512;DHT22;9999;48.780;9.146;2023-07-24T01:52:01;17.80;99.90
7512;DHT22;9999;48.780;9.146;2023-07-24T01:54:28;17.90;99.90
7512;DHT22;9999;48.780;9.146;2023-07-24T01:56:56;17.90;99.90
7512;DHT22;9999;48.780;9.146;2023-07-24T01:59:22;18.00;99.90
7512;DHT22;9999;48.780;9.146;2023-07-24T02:01:50;17.80;99.90
7512;DHT22;9999;48.780;9.146;2023-07-24T02:04:17;17.80;99.90
7512;DHT22;9999;48.780;9.146;2023-07-24T02:06:48;17.90;99.90
7512;DHT22;9999;48.780;9.146;2023-07-24T02:09:15;17.70;99.90
7512;DHT22;9999;48.780;9.146;2023-07-24T02:11:42;17.70;99.90
7512;DHT22;9999;48.780;9.146;2023-07-24T02:14:09;17.80;99.90
7512;DHT22;9999;48.780;9.146;2023-07-24T02:16:36;17.90;99.90
7512;DHT22;9999;48.780;9.146;2023-07-24T02:19:05;17.80;99.90
7512;DHT22;9999;48.780;9.146;2023-07-24T02:21:32;17.90;99.90
7512;DHT22;9999;48.780;9.146;2023-07-24T02:23:59;17.90;99.90
7512;DHT22;9999;48.780;9.146;2023-07-24T02:26:26;17.80;99.90
7512;DHT22;9999;48.780;9.146;2023-07-24T02:28:54;17.80;99.90
7512;DHT22;9999;48.780;9.146;2023-07-24T02:31:21;17.80;99.90
7512;DHT22;9999;48.780;9.146;2023-07-24T02:33:48;17.70;99.90
7512;DHT22;9999;48.780;9.146;2023-07-24T02:36:16;17.70;99.90
7512;DHT22;9999;48.780;9.146;2023-07-24T02:38:43;17.70;99.90
7512;DHT22;9999;48.780;9.146;2023-07-24T02:41:10;17.70;99.90
7512;DHT22;9999;48.780;9.146;2023-07-24T02:43:37;17.70;99.90
7512;DHT22;9999;48.780;9.146;2023-07-24T02:46:04;17.80;99.90
7512;DHT22;9999;48.780;9.146;2023-07-24T02:48:31;17.80;99.90
7512;DHT22;9999;48.780;9.146;2023-07-24T02:50:57;17.70;99.90
7512;DHT22;9999;48.780;9.146;2023-07-24T02:53:26;17.70;99.90
7512;DHT22;9999;48.780;9.146;2023-07-24T02:55:53;17.80;99.90
7512;DHT22;9999;48.780;9.146;2023-07-24T02:58:19;17.80;99.90
7512;DHT22;9999;48.780;9.146;2023-07-24T03:00:47;17.80;99.90
7512;DHT22;9999;48.780;9.146;2023-07-24T03:03:14;17.90;99.90
7512;DHT22;9999;48.780;9.146;2023-07-24T03:05:40;17.90;99.90
7512;DHT22;9999;48.780;9.146;2023-07-24T03:08:07;17.90;99.90
7512;DHT22;9999;48.780;9.146;2023-07-24T03:10:39;17.90;99.90
7512;DHT22;9999;48.780;9.146;2023-07-24T03:13:06;17.90;99.90
7512;DHT22;9999;48.780;9.146;2023-07-24T03:15:33;17.90;99.90
7512;DHT22;9999;48.780;9.146;2023-07-24T03:17:59;17.90;99.90
7512;DHT22;9999;48.780;9.146;2023-07-24T03:20:26;17.90;99.90
7512;DHT22;9999;48.780;9.146;2023-07-24T03:22:53;17.80;99.90
7512;DHT22;9999;48.780;9.146;2023-07-24T03:25:20;17.80;99.90
7512;DHT22;9999;48.780;9.146;2023-07-24T03:27:48;17.80;99.90
7512;DHT22;9999;48.780;9.146;2023-07-24T03:30:15;17.80;99.90
7512;DHT22;9999;48.780;9.146;2023-07-24T03:32:42;17.80;99.90
7512;DHT22;9999;48.780;9.146;2023-07-24T03:35:09;17.80;99.90
7512;DHT22;9999;48.780;9.146;2023-07-24T03:37:36;17.70;99.90
7512;DHT22;9999;48.780;9.146;2023-07-24T03:40:04;17.60;99.90
7512;DHT22;9999;48.780;9.146;2023-07-24T03:42:32;17.60;99.90
7512;DHT22;9999;48.780;9.146;2023-07-24T03:45:00;17.70;99.90
7512;DHT22;9999;48.780;9.146;2023-07-24T03:47:27;17.80;99.90
7512;DHT22;9999;48.780;9.146;2023-07-24T03:49:53;17.80;99.90
7512;DHT22;9999;48.780;9.146;2023-07-24T03:52:20;17.80;99.90
7512;DHT22;9999;48.780;9.146;2023-07-24T03:54:47;17.90;99.90
7512;DHT22;9999;48.780;9.146;2023-07-24T03:57:14;17.90;99.90
7512;DHT22;9999;48.780;9.146;2023-07-24T03:59:41;17.90;99.90
7512;DHT22;9999;48.780;9.146;2023-07-24T04:02:09;17.80;99.90
7512;DHT22;9999;48.780;9.146;2023-07-24T04:04:36;17.80;99.90
7512;DHT22;9999;48.780;9.146;2023-07-24T04:07:04;17.80;99.90
7512;DHT22;9999;48.780;9.146;2023-07-24T04:09:30;17.90;99.90
7512;DHT22;9999;48.780;9.146;2023-07-24T04:11:57;17.90;99.90
7512;DHT22;9999;48.780;9.146;2023-07-24T04:14:24;17.90;99.90
7512;DHT22;9999;48.780;9.146;2023-07-24T04:16:51;18.00;99.90
7512;DHT22;9999;48.780;9.146;2023-07-24T04:19:21;18.10;99.90
7512;DHT22;9999;48.780;9.146;2023-07-24T04:21:47;18.10;99.90
7512;DHT22;9999;48.780;9.146;2023-07-24T04:24:14;18.30;99.90
7512;DHT22;9999;48.780;9.146;2023-07-24T04:26:41;18.40;99.90
7512;DHT22;9999;48.780;9.146;2023-07-24T04:29:08;18.40;99.90
7512;DHT22;9999;48.780;9.146;2023-07-24T04:31:35;18.40;99.90
7512;DHT22;9999;48.780;9.146;2023-07-24T04:34:02;18.50;99.90
7512;DHT22;9999;48.780;9.146;2023-07-24T04:36:30;18.50;99.90
7512;DHT22;9999;48.780;9.146;2023-07-24T04:38:57;18.50;99.90
7512;DHT22;9999;48.780;9.146;2023-07-24T04:41:23;18.50;99.90
7512;DHT22;9999;48.780;9.146;2023-07-24T04:43:50;18.50;99.90
7512;DHT22;9999;48.780;9.146;2023-07-24T04:46:17;18.50;99.90
7512;DHT22;9999;48.780;9.146;2023-07-24T04:48:44;18.50;99.90
7512;DHT22;9999;48.780;9.146;2023-07-24T04:51:10;18.60;99.90
7512;DHT22;9999;48.780;9.146;2023-07-24T04:53:39;18.50;99.90
7512;DHT22;9999;48.780;9.146;2023-07-24T04:56:05;18.50;99.90
7512;DHT22;9999;48.780;9.146;2023-07-24T04:58:32;18.50;99.90
7512;DHT22;9999;48.780;9.146;2023-07-24T05:01:02;18.50;99.90
7512;DHT22;9999;48.780;9.146;2023-07-24T05:03:30;18.60;99.90
7512;DHT22;9999;48.780;9.146;2023-07-24T05:05:57;18.70;99.90
7512;DHT22;9999;48.780;9.146;2023-07-24T05:08:24;18.80;99.90
7512;DHT22;9999;48.780;9.146;2023-07-24T05:10:55;18.80;99.90
7512;DHT22;9999;48.780;9.146;2023-07-24T05:13:22;18.80;99.90
7512;DHT22;9999;48.780;9.146;2023-07-24T05:15:49;18.80;99.90
7512;DHT22;9999;48.780;9.146;2023-07-24T05:18:16;18.80;99.90
7512;DHT22;9999;48.780;9.146;2023-07-24T05:20:44;18.90;99.90
7512;DHT22;9999;48.780;9.146;2023-07-24T05:23:12;18.90;99.90
7512;DHT22;9999;48.780;9.146;2023-07-24T05:25:39;18.90;99.90
7512;DHT22;9999;48.780;9.146;2023-07-24T05:28:08;19.00;99.90
7512;DHT22;9999;48.780;9.146;2023-07-24T05:30:35;19.00;99.90
7512;DHT22;9999;48.780;9.146;2023-07-24T05:33:01;19.00;99.90
7512;DHT22;9999;48.780;9.146;2023-07-24T05:35:28;19.00;99.90
7512;DHT22;9999;48.780;9.146;2023-07-24T05:37:55;19.00;99.90
7512;DHT22;9999;48.780;9.146;2023-07-24T05:40:22;19.00;99.90
7512;DHT22;9999;48.780;9.146;2023-07-24T05:42:49;19.00;99.90
7512;DHT22;9999;48.780;9.146;2023-07-24T05:45:17;19.10;99.90
7512;DHT22;9999;48.780;9.146;2023-07-24T05:47:44;19.10;99.90
7512;DHT22;9999;48.780;9.146;2023-07-24T05:50:11;19.00;99.90
7512;DHT22;9999;48.780;9.146;2023-07-24T05:52:40;19.10;99.90
7512;DHT22;9999;48.780;9.146;2023-07-24T05:55:07;19.10;99.90
7512;DHT22;9999;48.780;9.146;2023-07-24T05:57:34;19.10;99.90
7512;DHT22;9999;48.780;9.146;2023-07-24T06:00:02;19.10;99.90
7512;DHT22;9999;48.780;9.146;2023-07-24T06:02:38;19.10;99.90
7512;DHT22;9999;48.780;9.146;2023-07-24T06:05:05;19.10;99.90
7512;DHT22;9999;48.780;9.146;2023-07-24T06:07:32;19.10;99.90
7512;DHT22;9999;48.780;9.146;2023-07-24T06:09:59;19.20;99.90
7512;DHT22;9999;48.780;9.146;2023-07-24T06:12:26;19.20;99.90
7512;DHT22;9999;48.780;9.146;2023-07-24T06:14:53;19.30;99.90
7512;DHT22;9999;48.780;9.146;2023-07-24T06:17:20;19.40;99.90
7512;DHT22;9999;48.780;9.146;2023-07-24T06:19:48;19.30;99.90
7512;DHT22;9999;48.780;9.146;2023-07-24T06:22:15;19.40;99.90
7512;DHT22;9999;48.780;9.146;2023-07-24T06:24:42;19.40;99.90
7512;DHT22;9999;48.780;9.146;2023-07-24T06:27:08;19.40;99.90
7512;DHT22;9999;48.780;9.146;2023-07-24T06:29:35;19.40;99.90
7512;DHT22;9999;48.780;9.146;2023-07-24T06:32:03;19.40;99.90
7512;DHT22;9999;48.780;9.146;2023-07-24T06:34:30;19.50;99.90
7512;DHT22;9999;48.780;9.146;2023-07-24T06:36:58;19.50;99.90
7512;DHT22;9999;48.780;9.146;2023-07-24T06:39:25;19.60;99.90
7512;DHT22;9999;48.780;9.146;2023-07-24T06:41:54;19.60;99.90
7512;DHT22;9999;48.780;9.146;2023-07-24T06:44:21;19.70;99.90
7512;DHT22;9999;48.780;9.146;2023-07-24T06:46:48;19.70;99.90
7512;DHT22;9999;48.780;9.146;2023-07-24T06:49:15;19.70;99.90
7512;DHT22;9999;48.780;9.146;2023-07-24T06:51:41;19.70;99.90
7512;DHT22;9999;48.780;9.146;2023-07-24T06:54:09;19.70;99.90
7512;DHT22;9999;48.780;9.146;2023-07-24T06:56:36;19.70;99.90
7512;DHT22;9999;48.780;9.146;2023-07-24T06:59:03;19.70;99.90
7512;DHT22;9999;48.780;9.146;2023-07-24T07:01:30;19.70;99.90
7512;DHT22;9999;48.780;9.146;2023-07-24T07:03:57;19.80;99.90
7512;DHT22;9999;48.780;9.146;2023-07-24T07:06:24;19.80;99.90
7512;DHT22;9999;48.780;9.146;2023-07-24T07:08:51;19.80;99.90
7512;DHT22;9999;48.780;9.146;2023-07-24T07:11:19;19.80;99.90
7512;DHT22;9999;48.780;9.146;2023-07-24T07:13:46;19.90;99.90
7512;DHT22;9999;48.780;9.146;2023-07-24T07:16:12;19.90;99.90
7512;DHT22;9999;48.780;9.146;2023-07-24T07:18:39;19.90;99.90
7512;DHT22;9999;48.780;9.146;2023-07-24T07:21:06;19.90;99.90
7512;DHT22;9999;48.780;9.146;2023-07-24T07:23:33;19.90;99.90
7512;DHT22;9999;48.780;9.146;2023-07-24T07:26:00;19.90;99.90
7512;DHT22;9999;48.780;9.146;2023-07-24T07:28:29;19.90;99.90
7512;DHT22;9999;48.780;9.146;2023-07-24T07:30:56;20.00;99.90
7512;DHT22;9999;48.780;9.146;2023-07-24T07:33:23;20.00;99.90
7512;DHT22;9999;48.780;9.146;2023-07-24T07:35:50;20.00;99.90
7512;DHT22;9999;48.780;9.146;2023-07-24T07:38:17;20.00;99.90
7512;DHT22;9999;48.780;9.146;2023-07-24T07:40:44;20.10;99.90
7512;DHT22;9999;48.780;9.146;2023-07-24T07:43:11;20.10;99.90
7512;DHT22;9999;48.780;9.146;2023-07-24T07:45:39;20.20;99.90
7512;DHT22;9999;48.780;9.146;2023-07-24T07:48:06;20.30;99.90
7512;DHT22;9999;48.780;9.146;2023-07-24T07:50:33;20.40;99.90
7512;DHT22;9999;48.780;9.146;2023-07-24T07:52:59;20.40;99.90
7512;DHT22;9999;48.780;9.146;2023-07-24T07:55:26;20.50;99.90
7512;DHT22;9999;48.780;9.146;2023-07-24T07:57:53;20.50;99.90
7512;DHT22;9999;48.780;9.146;2023-07-24T08:00:20;20.60;99.90
7512;DHT22;9999;48.780;9.146;2023-07-24T08:02:48;20.60;99.90
7512;DHT22;9999;48.780;9.146;2023-07-24T08:05:15;20.50;99.90
7512;DHT22;9999;48.780;9.146;2023-07-24T08:07:42;20.50;99.90
7512;DHT22;9999;48.780;9.146;2023-07-24T08:10:09;20.40;99.90
7512;DHT22;9999;48.780;9.146;2023-07-24T08:12:36;20.50;99.90
7512;DHT22;9999;48.780;9.146;2023-07-24T08:15:03;20.40;99.90
7512;DHT22;9999;48.780;9.146;2023-07-24T08:17:30;20.30;99.90
7512;DHT22;9999;48.780;9.146;2023-07-24T08:19:58;20.30;99.90
7512;DHT22;9999;48.780;9.146;2023-07-24T08:22:25;20.20;99.90
7512;DHT22;9999;48.780;9.146;2023-07-24T08:24:52;20.10;99.90
7512;DHT22;9999;48.780;9.146;2023-07-24T08:27:19;19.90;99.90
7512;DHT22;9999;48.780;9.146;2023-07-24T08:29:46;19.70;99.90
7512;DHT22;9999;48.780;9.146;2023-07-24T08:32:16;19.60;99.90
7512;DHT22;9999;48.780;9.146;2023-07-24T08:34:43;19.40;99.90
7512;DHT22;9999;48.780;9.146;2023-07-24T08:37:12;19.40;99.90
7512;DHT22;9999;48.780;9.146;2023-07-24T08:39:40;19.40;99.90
7512;DHT22;9999;48.780;9.146;2023-07-24T08:42:11;19.30;99.90
7512;DHT22;9999;48.780;9.146;2023-07-24T08:44:38;19.40;99.90
7512;DHT22;9999;48.780;9.146;2023-07-24T08:47:09;19.50;99.90
7512;DHT22;9999;48.780;9.146;2023-07-24T08:49:37;19.50;99.90
7512;DHT22;9999;48.780;9.146;2023-07-24T08:52:06;19.40;99.90
7512;DHT22;9999;48.780;9.146;2023-07-24T08:54:35;19.40;99.90
7512;DHT22;9999;48.780;9.146;2023-07-24T08:57:03;19.40;99.90
7512;DHT22;9999;48.780;9.146;2023-07-24T08:59:31;19.30;99.90
7512;DHT22;9999;48.780;9.146;2023-07-24T09:01:58;19.30;99.90
7512;DHT22;9999;48.780;9.146;2023-07-24T09:04:25;19.40;99.90
7512;DHT22;9999;48.780;9.146;2023-07-24T09:06:52;19.50;99.90
7512;DHT22;9999;48.780;9.146;2023-07-24T09:09:19;19.40;99.90
7512;DHT22;9999;48.780;9.146;2023-07-24T09:11:49;19.40;99.90
7512;DHT22;9999;48.780;9.146;2023-07-24T09:14:23;19.40;99.90
7512;DHT22;9999;48.780;9.146;2023-07-24T09:17:02;19.40;99.90
7512;DHT22;9999;48.780;9.146;2023-07-24T09:19:28;19.60;99.90
7512;DHT22;9999;48.780;9.146;2023-07-24T09:21:55;19.60;99.90
7512;DHT22;9999;48.780;9.146;2023-07-24T09:24:22;19.70;99.90
7512;DHT22;9999;48.780;9.146;2023-07-24T09:26:52;19.70;99.90
7512;DHT22;9999;48.780;9.146;2023-07-24T09:29:19;19.80;99.90
7512;DHT22;9999;48.780;9.146;2023-07-24T09:31:46;19.80;99.90
7512;DHT22;9999;48.780;9.146;2023-07-24T09:34:15;19.90;99.90
7512;DHT22;9999;48.780;9.146;2023-07-24T09:36:43;19.90;99.90
7512;DHT22;9999;48.780;9.146;2023-07-24T09:39:11;19.90;99.90
7512;DHT22;9999;48.780;9.146;2023-07-24T09:41:38;19.80;99.90
7512;DHT22;9999;48.780;9.146;2023-07-24T09:44:07;19.80;99.90
7512;DHT22;9999;48.780;9.146;2023-07-24T09:46:34;19.80;99.90
7512;DHT22;9999;48.780;9.146;2023-07-24T09:49:01;19.90;99.90
7512;DHT22;9999;48.780;9.146;2023-07-24T09:51:29;20.00;99.90
7512;DHT22;9999;48.780;9.146;2023-07-24T09:54:02;20.00;99.90
7512;DHT22;9999;48.780;9.146;2023-07-24T09:56:32;20.00;99.90
7512;DHT22;9999;48.780;9.146;2023-07-24T09:59:00;20.00;99.90
7512;DHT22;9999;48.780;9.146;2023-07-24T10:01:31;20.00;99.90
7512;DHT22;9999;48.780;9.146;2023-07-24T10:03:59;20.00;99.90
7512;DHT22;9999;48.780;9.146;2023-07-24T10:06:27;20.10;99.90
7512;DHT22;9999;48.780;9.146;2023-07-24T10:08:56;20.10;99.90
7512;DHT22;9999;48.780;9.146;2023-07-24T10:11:23;20.20;99.90
7512;DHT22;9999;48.780;9.146;2023-07-24T10:13:51;20.20;99.90
7512;DHT22;9999;48.780;9.146;2023-07-24T10:16:19;20.20;99.90
7512;DHT22;9999;48.780;9.146;2023-07-24T10:18:47;20.10;99.90
7512;DHT22;9999;48.780;9.146;2023-07-24T10:21:14;20.10;99.90
7512;DHT22;9999;48.780;9.146;2023-07-24T10:23:42;20.00;99.90
7512;DHT22;9999;48.780;9.146;2023-07-24T10:26:09;20.00;99.90
7512;DHT22;9999;48.780;9.146;2023-07-24T10:28:37;20.00;99.90
7512;DHT22;9999;48.780;9.146;2023-07-24T10:31:05;19.90;99.90
7512;DHT22;9999;48.780;9.146;2023-07-24T10:33:35;19.80;99.90
7512;DHT22;9999;48.780;9.146;2023-07-24T10:36:06;19.80;99.90
7512;DHT22;9999;48.780;9.146;2023-07-24T10:38:36;19.70;99.90
7512;DHT22;9999;48.780;9.146;2023-07-24T10:41:04;19.70;99.90
7512;DHT22;9999;48.780;9.146;2023-07-24T10:43:41;19.80;99.90
7512;DHT22;9999;48.780;9.146;2023-07-24T10:46:08;19.60;99.90
7512;DHT22;9999;48.780;9.146;2023-07-24T10:48:35;19.60;99.90
7512;DHT22;9999;48.780;9.146;2023-07-24T10:51:08;19.50;99.90
7512;DHT22;9999;48.780;9.146;2023-07-24T10:53:36;19.50;99.90
7512;DHT22;9999;48.780;9.146;2023-07-24T10:56:04;19.30;99.90
7512;DHT22;9999;48.780;9.146;2023-07-24T10:58:31;19.30;99.90
7512;DHT22;9999;48.780;9.146;2023-07-24T11:00:58;19.30;99.90
7512;DHT22;9999;48.780;9.146;2023-07-24T11:03:26;19.10;99.90
7512;DHT22;9999;48.780;9.146;2023-07-24T11:05:54;19.10;99.90
7512;DHT22;9999;48.780;9.146;2023-07-24T11:08:25;19.00;99.90
7512;DHT22;9999;48.780;9.146;2023-07-24T11:10:54;18.90;99.90
7512;DHT22;9999;48.780;9.146;2023-07-24T11:13:22;18.90;99.90
7512;DHT22;9999;48.780;9.146;2023-07-24T11:15:50;18.80;99.90
7512;DHT22;9999;48.780;9.146;2023-07-24T11:18:17;18.80;99.90
7512;DHT22;9999;48.780;9.146;2023-07-24T11:20:47;18.70;99.90
7512;DHT22;9999;48.780;9.146;2023-07-24T11:23:15;18.60;99.90
7512;DHT22;9999;48.780;9.146;2023-07-24T11:25:43;18.60;99.90
7512;DHT22;9999;48.780;9.146;2023-07-24T11:28:13;18.60;99.90
7512;DHT22;9999;48.780;9.146;2023-07-24T11:30:40;18.50;99.90
7512;DHT22;9999;48.780;9.146;2023-07-24T11:33:10;18.60;99.90
7512;DHT22;9999;48.780;9.146;2023-07-24T11:35:37;18.60;99.90
7512;DHT22;9999;48.780;9.146;2023-07-24T11:38:05;18.70;99.90
7512;DHT22;9999;48.780;9.146;2023-07-24T11:40:33;18.70;99.90
7512;DHT22;9999;48.780;9.146;2023-07-24T11:43:03;18.70;99.90
7512;DHT22;9999;48.780;9.146;2023-07-24T11:45:30;19.20;99.90
7512;DHT22;9999;48.780;9.146;2023-07-24T11:47:57;19.50;99.90
7512;DHT22;9999;48.780;9.146;2023-07-24T11:50:24;19.60;99.90
7512;DHT22;9999;48.780;9.146;2023-07-24T11:52:53;19.60;99.90
7512;DHT22;9999;48.780;9.146;2023-07-24T11:55:29;19.50;99.90
7512;DHT22;9999;48.780;9.146;2023-07-24T11:57:57;19.40;99.90
7512;DHT22;9999;48.780;9.146;2023-07-24T12:00:25;19.20;99.90
7512;DHT22;9999;48.780;9.146;2023-07-24T12:02:58;19.10;99.90
7512;DHT22;9999;48.780;9.146;2023-07-24T12:05:25;18.90;99.90
7512;DHT22;9999;48.780;9.146;2023-07-24T12:07:54;18.90;99.90
7512;DHT22;9999;48.780;9.146;2023-07-24T12:10:26;18.90;99.90
7512;DHT22;9999;48.780;9.146;2023-07-24T12:12:55;19.00;99.90
7512;DHT22;9999;48.780;9.146;2023-07-24T12:15:25;19.00;99.90
7512;DHT22;9999;48.780;9.146;2023-07-24T12:17:53;18.90;99.90
7512;DHT22;9999;48.780;9.146;2023-07-24T12:20:20;19.00;99.90
7512;DHT22;9999;48.780;9.146;2023-07-24T12:22:47;19.00;99.90
7512;DHT22;9999;48.780;9.146;2023-07-24T12:25:14;19.00;99.90
7512;DHT22;9999;48.780;9.146;2023-07-24T12:27:42;19.00;99.90
7512;DHT22;9999;48.780;9.146;2023-07-24T12:30:09;19.00;99.90
7512;DHT22;9999;48.780;9.146;2023-07-24T12:32:37;19.10;99.90
7512;DHT22;9999;48.780;9.146;2023-07-24T12:35:52;19.10;99.90
7512;DHT22;9999;48.780;9.146;2023-07-24T12:38:27;19.10;99.90
7512;DHT22;9999;48.780;9.146;2023-07-24T12:40:55;19.20;99.90
7512;DHT22;9999;48.780;9.146;2023-07-24T12:43:22;19.30;99.90
7512;DHT22;9999;48.780;9.146;2023-07-24T12:45:49;19.30;99.90
7512;DHT22;9999;48.780;9.146;2023-07-24T12:48:17;19.30;99.90
7512;DHT22;9999;48.780;9.146;2023-07-24T12:50:45;19.40;99.90
7512;DHT22;9999;48.780;9.146;2023-07-24T12:53:13;19.60;99.90
7512;DHT22;9999;48.780;9.146;2023-07-24T12:55:41;19.70;99.90
7512;DHT22;9999;48.780;9.146;2023-07-24T12:58:08;19.70;99.90
7512;DHT22;9999;48.780;9.146;2023-07-24T13:00:35;20.00;99.90
7512;DHT22;9999;48.780;9.146;2023-07-24T13:03:02;20.20;99.90
7512;DHT22;9999;48.780;9.146;2023-07-24T13:05:32;20.30;99.90
7512;DHT22;9999;48.780;9.146;2023-07-24T13:08:00;20.50;99.90
7512;DHT22;9999;48.780;9.146;2023-07-24T13:10:27;20.70;99.90
7512;DHT22;9999;48.780;9.146;2023-07-24T13:12:54;20.80;99.90
7512;DHT22;9999;48.780;9.146;2023-07-24T13:15:21;20.90;99.90
7512;DHT22;9999;48.780;9.146;2023-07-24T13:17:48;21.00;99.90
7512;DHT22;9999;48.780;9.146;2023-07-24T13:20:15;21.20;99.90
7512;DHT22;9999;48.780;9.146;2023-07-24T13:22:43;21.30;99.90
7512;DHT22;9999;48.780;9.146;2023-07-24T13:25:12;21.50;99.90
7512;DHT22;9999;48.780;9.146;2023-07-24T13:27:39;21.50;99.90
7512;DHT22;9999;48.780;9.146;2023-07-24T13:30:07;21.50;99.90
7512;DHT22;9999;48.780;9.146;2023-07-24T13:32:34;21.60;99.90
7512;DHT22;9999;48.780;9.146;2023-07-24T13:35:01;21.70;99.90
7512;DHT22;9999;48.780;9.146;2023-07-24T13:37:27;21.90;99.90
7512;DHT22;9999;48.780;9.146;2023-07-24T13:39:56;22.00;99.90
7512;DHT22;9999;48.780;9.146;2023-07-24T13:42:23;22.10;99.90
7512;DHT22;9999;48.780;9.146;2023-07-24T13:44:50;21.90;99.90
7512;DHT22;9999;48.780;9.146;2023-07-24T13:47:17;21.70;99.90
7512;DHT22;9999;48.780;9.146;2023-07-24T13:49:46;21.70;99.90
7512;DHT22;9999;48.780;9.146;2023-07-24T13:52:13;21.60;99.90
7512;DHT22;9999;48.780;9.146;2023-07-24T13:54:40;21.80;99.90
7512;DHT22;9999;48.780;9.146;2023-07-24T13:57:08;21.90;99.90
7512;DHT22;9999;48.780;9.146;2023-07-24T13:59:36;22.10;99.90
7512;DHT22;9999;48.780;9.146;2023-07-24T14:02:04;22.20;99.90
7512;DHT22;9999;48.780;9.146;2023-07-24T14:04:31;22.50;99.90
7512;DHT22;9999;48.780;9.146;2023-07-24T14:06:58;22.70;99.90
7512;DHT22;9999;48.780;9.146;2023-07-24T14:09:25;22.70;99.90
7512;DHT22;9999;48.780;9.146;2023-07-24T14:11:51;22.70;99.90
7512;DHT22;9999;48.780;9.146;2023-07-24T14:14:20;22.80;99.90
7512;DHT22;9999;48.780;9.146;2023-07-24T14:16:49;22.80;99.90
7512;DHT22;9999;48.780;9.146;2023-07-24T14:19:16;23.00;99.90
7512;DHT22;9999;48.780;9.146;2023-07-24T14:21:43;23.10;99.90
7512;DHT22;9999;48.780;9.146;2023-07-24T14:24:10;22.80;99.90
7512;DHT22;9999;48.780;9.146;2023-07-24T14:26:37;22.50;99.90
7512;DHT22;9999;48.780;9.146;2023-07-24T14:29:04;22.40;99.90
7512;DHT22;9999;48.780;9.146;2023-07-24T14:31:32;22.50;99.90
7512;DHT22;9999;48.780;9.146;2023-07-24T14:33:59;22.50;99.90
7512;DHT22;9999;48.780;9.146;2023-07-24T14:36:26;22.40;99.90
7512;DHT22;9999;48.780;9.146;2023-07-24T14:38:59;22.30;99.90
7512;DHT22;9999;48.780;9.146;2023-07-24T14:41:25;22.50;99.90
7512;DHT22;9999;48.780;9.146;2023-07-24T14:43:52;22.60;99.90
7512;DHT22;9999;48.780;9.146;2023-07-24T14:46:19;22.70;99.90
7512;DHT22;9999;48.780;9.146;2023-07-24T14:48:48;22.80;99.90
7512;DHT22;9999;48.780;9.146;2023-07-24T14:51:14;22.80;99.90
7512;DHT22;9999;48.780;9.146;2023-07-24T14:53:41;22.70;99.90
7512;DHT22;9999;48.780;9.146;2023-07-24T14:56:08;22.60;99.90
7512;DHT22;9999;48.780;9.146;2023-07-24T14:58:35;22.50;99.90
7512;DHT22;9999;48.780;9.146;2023-07-24T15:01:02;22.30;99.90
7512;DHT22;9999;48.780;9.146;2023-07-24T15:03:28;22.30;99.90
7512;DHT22;9999;48.780;9.146;2023-07-24T15:06:00;22.30;99.90
7512;DHT22;9999;48.780;9.146;2023-07-24T15:08:29;22.20;99.90
7512;DHT22;9999;48.780;9.146;2023-07-24T15:10:56;22.40;99.90
7512;DHT22;9999;48.780;9.146;2023-07-24T15:13:23;22.80;99.90
7512;DHT22;9999;48.780;9.146;2023-07-24T15:15:50;23.00;99.90
7512;DHT22;9999;48.780;9.146;2023-07-24T15:18:17;23.00;99.90
7512;DHT22;9999;48.780;9.146;2023-07-24T15:20:44;22.90;99.90
7512;DHT22;9999;48.780;9.146;2023-07-24T15:23:12;22.90;99.90
7512;DHT22;9999;48.780;9.146;2023-07-24T15:25:39;22.80;99.90
7512;DHT22;9999;48.780;9.146;2023-07-24T15:28:06;22.60;99.90
7512;DHT22;9999;48.780;9.146;2023-07-24T15:30:33;22.40;99.90
7512;DHT22;9999;48.780;9.146;2023-07-24T15:32:59;22.30;99.90
7512;DHT22;9999;48.780;9.146;2023-07-24T15:35:26;22.20;99.90
7512;DHT22;9999;48.780;9.146;2023-07-24T15:37:53;22.20;99.90
7512;DHT22;9999;48.780;9.146;2023-07-24T15:40:21;22.10;99.90
7512;DHT22;9999;48.780;9.146;2023-07-24T15:42:48;22.00;99.90
7512;DHT22;9999;48.780;9.146;2023-07-24T15:45:15;21.90;99.90
7512;DHT22;9999;48.780;9.146;2023-07-24T15:47:42;21.70;99.90
7512;DHT22;9999;48.780;9.146;2023-07-24T15:50:09;21.70;99.90
7512;DHT22;9999;48.780;9.146;2023-07-24T15:52:36;21.50;99.90
7512;DHT22;9999;48.780;9.146;2023-07-24T15:55:03;21.50;99.90
7512;DHT22;9999;48.780;9.146;2023-07-24T15:57:32;21.50;99.90
7512;DHT22;9999;48.780;9.146;2023-07-24T15:59:58;21.60;99.90
7512;DHT22;9999;48.780;9.146;2023-07-24T16:02:25;21.70;99.90
7512;DHT22;9999;48.780;9.146;2023-07-24T16:04:52;21.70;99.90